sensor_id;sensor_type;location;lat;lon;timestamp;temperature;humidity
17954;DHT22;9102;53.548;9.926;2022-10-31T00:01:45;13.90;99.90
17954;DHT22;9102;53.548;9.926;2022-10-31T00:04:12;13.90;99.90
17954;DHT22;9102;53.548;9.926;2022-10-31T00:06:39;13.90;99.90
17954;DHT22;9102;53.548;9.926;2022-10-31T00:09:06;13.90;99.90
17954;DHT22;9102;53.548;9.926;2022-10-31T00:11:33;13.90;99.90
17954;DHT22;9102;53.548;9.926;2022-10-31T00:14:01;13.70;99.90
17954;DHT22;9102;53.548;9.926;2022-10-31T00:16:28;13.70;99.90
17954;DHT22;9102;53.548;9.926;2022-10-31T00:18:56;13.70;99.90
17954;DHT22;9102;53.548;9.926;2022-10-31T00:21:24;13.60;99.90
17954;DHT22;9102;53.548;9.926;2022-10-31T00:23:51;13.60;99.90
17954;DHT22;9102;53.548;9.926;2022-10-31T00:26:18;13.60;99.90
17954;DHT22;9102;53.548;9.926;2022-10-31T00:28:45;13.60;99.90
17954;DHT22;9102;53.548;9.926;2022-10-31T00:31:14;13.50;99.90
17954;DHT22;9102;53.548;9.926;2022-10-31T00:33:41;13.50;99.90
17954;DHT22;9102;53.548;9.926;2022-10-31T00:36:11;13.50;99.90
17954;DHT22;9102;53.548;9.926;2022-10-31T00:38:38;13.50;99.90
17954;DHT22;9102;53.548;9.926;2022-10-31T00:41:05;13.50;99.90
17954;DHT22;9102;53.548;9.926;2022-10-31T00:43:32;13.40;99.90
17954;DHT22;9102;53.548;9.926;2022-10-31T00:45:59;13.40;99.90
17954;DHT22;9102;53.548;9.926;2022-10-31T00:48:27;13.40;99.90
17954;DHT22;9102;53.548;9.926;2022-10-31T00:50:54;13.40;99.90
17954;DHT22;9102;53.548;9.926;2022-10-31T00:53:21;13.40;99.90
17954;DHT22;9102;53.548;9.926;2022-10-31T00:55:48;13.30;99.90
17954;DHT22;9102;53.548;9.926;2022-10-31T00:58:15;13.30;99.90
17954;DHT22;9102;53.548;9.926;2022-10-31T01:00:42;13.30;99.90
17954;DHT22;9102;53.548;9.926;2022-10-31T01:03:09;13.30;99.90
17954;DHT22;9102;53.548;9.926;2022-10-31T01:05:37;13.20;99.90
17954;DHT22;9102;53.548;9.926;2022-10-31T01:08:04;13.20;99.90
17954;DHT22;9102;53.548;9.926;2022-10-31T01:10:30;13.20;99.90
17954;DHT22;9102;53.548;9.926;2022-10-31T01:12:57;13.20;99.90
17954;DHT22;9102;53.548;9.926;2022-10-31T01:15:24;13.20;99.90
17954;DHT22;9102;53.548;9.926;2022-10-31T01:17:51;13.20;99.90
17954;DHT22;9102;53.548;9.926;2022-10-31T01:20:18;13.20;99.90
17954;DHT22;9102;53.548;9.926;2022-10-31T01:22:47;13.30;99.90
17954;DHT22;9102;53.548;9.926;2022-10-31T01:25:14;13.20;99.90
17954;DHT22;9102;53.548;9.926;2022-10-31T01:27:41;13.20;99.90
17954;DHT22;9102;53.548;9.926;2022-10-31T01:30:08;13.20;99.90
17954;DHT22;9102;53.548;9.926;2022-10-31T01:32:35;13.20;99.90
17954;DHT22;9102;53.548;9.926;2022-10-31T01:35:02;13.20;99.90
17954;DHT22;9102;53.548;9.926;2022-10-31T01:37:30;13.30;99.90
17954;DHT22;9102;53.548;9.926;2022-10-31T01:39:58;13.30;99.90
17954;DHT22;9102;53.548;9.926;2022-10-31T01:42:25;13.30;99.90
17954;DHT22;9102;53.548;9.926;2022-10-31T01:44:56;13.20;99.90
17954;DHT22;9102;53.548;9.926;2022-10-31T01:47:40;13.20;99.90
17954;DHT22;9102;53.548;9.926;2022-10-31T01:50:16;13.20;99.90
17954;DHT22;9102;53.548;9.926;2022-10-31T01:52:49;13.20;99.90
17954;DHT22;9102;53.548;9.926;2022-10-31T01:55:22;13.20;99.90
17954;DHT22;9102;53.548;9.926;2022-10-31T01:57:52;13.10;99.90
17954;DHT22;9102;53.548;9.926;2022-10-31T02:00:21;13.10;99.90
17954;DHT22;9102;53.548;9.926;2022-10-31T02:02:49;13.10;99.90
17954;DHT22;9102;53.548;9.926;2022-10-31T02:05:18;13.10;99.90
17954;DHT22;9102;53.548;9.926;2022-10-31T02:07:50;13.10;99.90
17954;DHT22;9102;53.548;9.926;2022-10-31T02:10:21;13.10;99.90
17954;DHT22;9102;53.548;9.926;2022-10-31T02:12:50;13.20;99.90
17954;DHT22;9102;53.548;9.926;2022-10-31T02:15:18;13.10;99.90
17954;DHT22;9102;53.548;9.926;2022-10-31T02:17:44;13.20;99.90
17954;DHT22;9102;53.548;9.926;2022-10-31T02:20:15;13.10;99.90
17954;DHT22;9102;53.548;9.926;2022-10-31T02:26:24;13.10;99.90
17954;DHT22;9102;53.548;9.926;2022-10-31T02:29:10;13.10;99.90
17954;DHT22;9102;53.548;9.926;2022-10-31T02:31:45;13.10;99.90
17954;DHT22;9102;53.548;9.926;2022-10-31T02:34:18;13.00;99.90
17954;DHT22;9102;53.548;9.926;2022-10-31T02:36:53;13.00;99.90
17954;DHT22;9102;53.548;9.926;2022-10-31T02:39:25;13.00;99.90
17954;DHT22;9102;53.548;9.926;2022-10-31T02:41:59;13.00;99.90
17954;DHT22;9102;53.548;9.926;2022-10-31T02:44:31;13.00;99.90
17954;DHT22;9102;53.548;9.926;2022-10-31T02:47:05;13.00;99.90
17954;DHT22;9102;53.548;9.926;2022-10-31T02:49:36;12.90;99.90
17954;DHT22;9102;53.548;9.926;2022-10-31T02:52:14;13.00;99.90
17954;DHT22;9102;53.548;9.926;2022-10-31T02:54:41;12.90;99.90
17954;DHT22;9102;53.548;9.926;2022-10-31T02:57:08;12.90;99.90
17954;DHT22;9102;53.548;9.926;2022-10-31T02:59:37;12.80;99.90
17954;DHT22;9102;53.548;9.926;2022-10-31T03:05:34;12.80;99.90
17954;DHT22;9102;53.548;9.926;2022-10-31T03:08:11;12.80;99.90
17954;DHT22;9102;53.548;9.926;2022-10-31T03:10:42;12.80;99.90
17954;DHT22;9102;53.548;9.926;2022-10-31T03:13:17;12.70;99.90
17954;DHT22;9102;53.548;9.926;2022-10-31T03:15:50;12.70;99.90
17954;DHT22;9102;53.548;9.926;2022-10-31T03:18:23;12.70;99.90
17954;DHT22;9102;53.548;9.926;2022-10-31T03:21:00;12.70;99.90
17954;DHT22;9102;53.548;9.926;2022-10-31T03:23:29;12.70;99.90
17954;DHT22;9102;53.548;9.926;2022-10-31T03:25:57;12.70;99.90
17954;DHT22;9102;53.548;9.926;2022-10-31T03:28:29;12.70;99.90
17954;DHT22;9102;53.548;9.926;2022-10-31T03:30:58;12.70;99.90
17954;DHT22;9102;53.548;9.926;2022-10-31T03:33:28;12.70;99.90
17954;DHT22;9102;53.548;9.926;2022-10-31T03:35:59;12.70;99.90
17954;DHT22;9102;53.548;9.926;2022-10-31T03:38:28;12.70;99.90
17954;DHT22;9102;53.548;9.926;2022-10-31T03:40:58;12.70;99.90
17954;DHT22;9102;53.548;9.926;2022-10-31T03:43:29;12.70;99.90
17954;DHT22;9102;53.548;9.926;2022-10-31T03:45:56;12.70;99.90
17954;DHT22;9102;53.548;9.926;2022-10-31T03:48:24;12.70;99.90
17954;DHT22;9102;53.548;9.926;2022-10-31T03:51:00;12.70;99.90
17954;DHT22;9102;53.548;9.926;2022-10-31T03:53:33;12.80;99.90
17954;DHT22;9102;53.548;9.926;2022-10-31T03:56:02;12.80;99.90
17954;DHT22;9102;53.548;9.926;2022-10-31T03:58:36;12.80;99.90
17954;DHT22;9102;53.548;9.926;2022-10-31T04:01:06;12.70;99.90
17954;DHT22;9102;53.548;9.926;2022-10-31T04:03:36;12.70;99.90
17954;DHT22;9102;53.548;9.926;2022-10-31T04:06:08;12.70;99.90
17954;DHT22;9102;53.548;9.926;2022-10-31T04:08:39;12.70;99.90
17954;DHT22;9102;53.548;9.926;2022-10-31T04:11:08;12.70;99.90
17954;DHT22;9102;53.548;9.926;2022-10-31T04:13:37;12.60;99.90
17954;DHT22;9102;53.548;9.926;2022-10-31T04:16:07;12.70;99.90
17954;DHT22;9102;53.548;9.926;2022-10-31T04:18:34;12.70;99.90
17954;DHT22;9102;53.548;9.926;2022-10-31T04:21:03;12.70;99.90
17954;DHT22;9102;53.548;9.926;2022-10-31T04:23:33;12.70;99.90
17954;DHT22;9102;53.548;9.926;2022-10-31T04:26:01;12.70;99.90
17954;DHT22;9102;53.548;9.926;2022-10-31T04:28:28;12.80;99.90
17954;DHT22;9102;53.548;9.926;2022-10-31T04:30:55;12.80;99.90
17954;DHT22;9102;53.548;9.926;2022-10-31T04:33:21;12.80;99.90
17954;DHT22;9102;53.548;9.926;2022-10-31T04:35:48;12.90;99.90
17954;DHT22;9102;53.548;9.926;2022-10-31T04:38:15;12.90;99.90
17954;DHT22;9102;53.548;9.926;2022-10-31T04:40:44;12.90;99.90
17954;DHT22;9102;53.548;9.926;2022-10-31T04:43:11;13.00;99.90
17954;DHT22;9102;53.548;9.926;2022-10-31T04:45:38;13.00;99.90
17954;DHT22;9102;53.548;9.926;2022-10-31T04:48:05;13.00;99.90
17954;DHT22;9102;53.548;9.926;2022-10-31T04:50:32;12.90;99.90
17954;DHT22;9102;53.548;9.926;2022-10-31T04:52:59;12.90;99.90
17954;DHT22;9102;53.548;9.926;2022-10-31T04:55:25;12.90;99.90
17954;DHT22;9102;53.548;9.926;2022-10-31T04:57:54;12.90;99.90
17954;DHT22;9102;53.548;9.926;2022-10-31T05:00:21;12.90;99.90
17954;DHT22;9102;53.548;9.926;2022-10-31T05:02:49;13.00;99.90
17954;DHT22;9102;53.548;9.926;2022-10-31T05:05:18;12.90;99.90
17954;DHT22;9102;53.548;9.926;2022-10-31T05:07:46;13.00;99.90
17954;DHT22;9102;53.548;9.926;2022-10-31T05:10:16;13.00;99.90
17954;DHT22;9102;53.548;9.926;2022-10-31T05:12:47;13.00;99.90
17954;DHT22;9102;53.548;9.926;2022-10-31T05:15:17;13.00;99.90
17954;DHT22;9102;53.548;9.926;2022-10-31T05:17:44;13.00;99.90
17954;DHT22;9102;53.548;9.926;2022-10-31T05:20:12;13.00;99.90
17954;DHT22;9102;53.548;9.926;2022-10-31T05:22:42;13.00;99.90
17954;DHT22;9102;53.548;9.926;2022-10-31T05:25:09;13.00;99.90
17954;DHT22;9102;53.548;9.926;2022-10-31T05:27:39;13.00;99.90
17954;DHT22;9102;53.548;9.926;2022-10-31T05:30:06;13.10;99.90
17954;DHT22;9102;53.548;9.926;2022-10-31T05:32:38;13.00;99.90
17954;DHT22;9102;53.548;9.926;2022-10-31T05:35:06;13.00;99.90
17954;DHT22;9102;53.548;9.926;2022-10-31T05:37:33;13.00;99.90
17954;DHT22;9102;53.548;9.926;2022-10-31T05:40:00;13.00;99.90
17954;DHT22;9102;53.548;9.926;2022-10-31T05:42:27;13.00;99.90
17954;DHT22;9102;53.548;9.926;2022-10-31T05:44:54;13.00;99.90
17954;DHT22;9102;53.548;9.926;2022-10-31T05:47:21;13.10;99.90
17954;DHT22;9102;53.548;9.926;2022-10-31T05:49:49;13.10;99.90
17954;DHT22;9102;53.548;9.926;2022-10-31T05:52:16;13.10;99.90
17954;DHT22;9102;53.548;9.926;2022-10-31T05:54:43;13.20;99.90
17954;DHT22;9102;53.548;9.926;2022-10-31T05:57:10;13.10;99.90
17954;DHT22;9102;53.548;9.926;2022-10-31T05:59:36;13.10;99.90
17954;DHT22;9102;53.548;9.926;2022-10-31T06:02:03;13.00;99.90
17954;DHT22;9102;53.548;9.926;2022-10-31T06:04:31;13.00;99.90
17954;DHT22;9102;53.548;9.926;2022-10-31T06:06:59;13.00;99.90
17954;DHT22;9102;53.548;9.926;2022-10-31T06:09:26;13.00;99.90
17954;DHT22;9102;53.548;9.926;2022-10-31T06:11:53;13.00;99.90
17954;DHT22;9102;53.548;9.926;2022-10-31T06:14:19;13.00;99.90
17954;DHT22;9102;53.548;9.926;2022-10-31T06:16:46;12.90;99.90
17954;DHT22;9102;53.548;9.926;2022-10-31T06:19:13;12.90;99.90
17954;DHT22;9102;53.548;9.926;2022-10-31T06:21:40;12.90;99.90
17954;DHT22;9102;53.548;9.926;2022-10-31T06:24:08;12.90;99.90
17954;DHT22;9102;53.548;9.926;2022-10-31T06:26:35;13.00;99.90
17954;DHT22;9102;53.548;9.926;2022-10-31T06:29:01;13.00;99.90
17954;DHT22;9102;53.548;9.926;2022-10-31T06:31:28;12.90;99.90
17954;DHT22;9102;53.548;9.926;2022-10-31T06:33:55;12.90;99.90
17954;DHT22;9102;53.548;9.926;2022-10-31T06:36:22;13.00;99.90
17954;DHT22;9102;53.548;9.926;2022-10-31T06:38:49;12.90;99.90
17954;DHT22;9102;53.548;9.926;2022-10-31T06:41:17;12.90;99.90
17954;DHT22;9102;53.548;9.926;2022-10-31T06:43:46;13.00;99.90
17954;DHT22;9102;53.548;9.926;2022-10-31T06:46:13;13.00;99.90
17954;DHT22;9102;53.548;9.926;2022-10-31T06:48:40;13.00;99.90
17954;DHT22;9102;53.548;9.926;2022-10-31T06:51:07;13.00;99.90
17954;DHT22;9102;53.548;9.926;2022-10-31T06:53:34;13.00;99.90
17954;DHT22;9102;53.548;9.926;2022-10-31T06:56:00;13.00;99.90
17954;DHT22;9102;53.548;9.926;2022-10-31T06:58:29;13.00;99.90
17954;DHT22;9102;53.548;9.926;2022-10-31T07:00:58;13.00;99.90
17954;DHT22;9102;53.548;9.926;2022-10-31T07:03:26;13.10;99.90
17954;DHT22;9102;53.548;9.926;2022-10-31T07:05:54;13.00;99.90
17954;DHT22;9102;53.548;9.926;2022-10-31T07:08:21;13.00;99.90
17954;DHT22;9102;53.548;9.926;2022-10-31T07:10:51;12.90;99.90
17954;DHT22;9102;53.548;9.926;2022-10-31T07:13:18;12.90;99.90
17954;DHT22;9102;53.548;9.926;2022-10-31T07:15:52;12.90;99.90
17954;DHT22;9102;53.548;9.926;2022-10-31T07:18:20;12.90;99.90
17954;DHT22;9102;53.548;9.926;2022-10-31T07:20:46;12.90;99.90
17954;DHT22;9102;53.548;9.926;2022-10-31T07:23:13;12.90;99.90
17954;DHT22;9102;53.548;9.926;2022-10-31T07:25:40;12.90;99.90
17954;DHT22;9102;53.548;9.926;2022-10-31T07:28:07;12.90;99.90
17954;DHT22;9102;53.548;9.926;2022-10-31T07:30:34;12.90;99.90
17954;DHT22;9102;53.548;9.926;2022-10-31T07:33:03;12.90;99.90
17954;DHT22;9102;53.548;9.926;2022-10-31T07:35:30;12.90;99.90
17954;DHT22;9102;53.548;9.926;2022-10-31T07:37:58;13.00;99.90
17954;DHT22;9102;53.548;9.926;2022-10-31T07:40:32;13.00;99.90
17954;DHT22;9102;53.548;9.926;2022-10-31T07:42:59;12.90;99.90
17954;DHT22;9102;53.548;9.926;2022-10-31T07:45:26;12.80;99.90
17954;DHT22;9102;53.548;9.926;2022-10-31T07:47:53;12.80;99.90
17954;DHT22;9102;53.548;9.926;2022-10-31T07:50:23;12.80;99.90
17954;DHT22;9102;53.548;9.926;2022-10-31T07:52:58;12.80;99.90
17954;DHT22;9102;53.548;9.926;2022-10-31T07:55:25;12.70;99.90
17954;DHT22;9102;53.548;9.926;2022-10-31T07:57:56;12.80;99.90
17954;DHT22;9102;53.548;9.926;2022-10-31T08:00:22;12.90;99.90
17954;DHT22;9102;53.548;9.926;2022-10-31T08:02:56;12.90;99.90
17954;DHT22;9102;53.548;9.926;2022-10-31T08:05:25;13.00;99.90
17954;DHT22;9102;53.548;9.926;2022-10-31T08:07:51;13.00;99.90
17954;DHT22;9102;53.548;9.926;2022-10-31T08:10:18;13.00;99.90
17954;DHT22;9102;53.548;9.926;2022-10-31T08:12:45;13.00;99.90
17954;DHT22;9102;53.548;9.926;2022-10-31T08:15:12;13.10;99.90
17954;DHT22;9102;53.548;9.926;2022-10-31T08:17:39;13.20;99.90
17954;DHT22;9102;53.548;9.926;2022-10-31T08:20:06;13.30;99.90
17954;DHT22;9102;53.548;9.926;2022-10-31T08:22:34;13.40;99.90
17954;DHT22;9102;53.548;9.926;2022-10-31T08:25:01;13.40;99.90
17954;DHT22;9102;53.548;9.926;2022-10-31T08:27:28;13.30;99.90
17954;DHT22;9102;53.548;9.926;2022-10-31T08:29:55;13.50;99.90
17954;DHT22;9102;53.548;9.926;2022-10-31T08:32:22;13.50;99.90
17954;DHT22;9102;53.548;9.926;2022-10-31T08:34:48;13.50;99.90
17954;DHT22;9102;53.548;9.926;2022-10-31T08:37:15;13.50;99.90
17954;DHT22;9102;53.548;9.926;2022-10-31T08:39:46;13.60;99.90
17954;DHT22;9102;53.548;9.926;2022-10-31T08:42:13;13.60;99.90
17954;DHT22;9102;53.548;9.926;2022-10-31T08:44:40;13.80;99.90
17954;DHT22;9102;53.548;9.926;2022-10-31T08:47:06;13.70;99.90
17954;DHT22;9102;53.548;9.926;2022-10-31T08:49:33;13.60;99.90
17954;DHT22;9102;53.548;9.926;2022-10-31T08:52:00;13.60;99.90
17954;DHT22;9102;53.548;9.926;2022-10-31T08:54:27;13.50;99.90
17954;DHT22;9102;53.548;9.926;2022-10-31T08:56:56;13.40;99.90
17954;DHT22;9102;53.548;9.926;2022-10-31T08:59:22;13.30;99.90
17954;DHT22;9102;53.548;9.926;2022-10-31T09:01:49;13.30;99.90
17954;DHT22;9102;53.548;9.926;2022-10-31T09:04:16;13.40;99.90
17954;DHT22;9102;53.548;9.926;2022-10-31T09:06:43;13.50;99.90
17954;DHT22;9102;53.548;9.926;2022-10-31T09:09:10;13.60;99.90
17954;DHT22;9102;53.548;9.926;2022-10-31T09:11:36;13.60;99.90
17954;DHT22;9102;53.548;9.926;2022-10-31T09:14:05;13.60;99.90
17954;DHT22;9102;53.548;9.926;2022-10-31T09:16:31;13.70;99.90
17954;DHT22;9102;53.548;9.926;2022-10-31T09:18:58;13.70;99.90
17954;DHT22;9102;53.548;9.926;2022-10-31T09:21:25;13.80;99.90
17954;DHT22;9102;53.548;9.926;2022-10-31T09:23:52;13.80;99.90
17954;DHT22;9102;53.548;9.926;2022-10-31T09:26:19;13.80;99.90
17954;DHT22;9102;53.548;9.926;2022-10-31T09:28:46;13.90;99.90
17954;DHT22;9102;53.548;9.926;2022-10-31T09:31:14;14.00;99.90
17954;DHT22;9102;53.548;9.926;2022-10-31T09:33:41;14.00;99.90
17954;DHT22;9102;53.548;9.926;2022-10-31T09:36:08;14.20;99.90
17954;DHT22;9102;53.548;9.926;2022-10-31T09:38:37;14.10;99.90
17954;DHT22;9102;53.548;9.926;2022-10-31T09:41:12;14.10;99.90
17954;DHT22;9102;53.548;9.926;2022-10-31T09:43:48;14.00;99.90
17954;DHT22;9102;53.548;9.926;2022-10-31T09:46:27;14.00;99.90
17954;DHT22;9102;53.548;9.926;2022-10-31T09:49:10;14.00;99.90
17954;DHT22;9102;53.548;9.926;2022-10-31T09:51:44;14.00;99.90
17954;DHT22;9102;53.548;9.926;2022-10-31T09:54:17;13.90;99.90
17954;DHT22;9102;53.548;9.926;2022-10-31T09:56:45;14.00;99.90
17954;DHT22;9102;53.548;9.926;2022-10-31T09:59:20;14.00;99.90
17954;DHT22;9102;53.548;9.926;2022-10-31T10:01:53;14.00;99.90
17954;DHT22;9102;53.548;9.926;2022-10-31T10:04:31;14.00;99.90
17954;DHT22;9102;53.548;9.926;2022-10-31T10:07:05;14.00;99.90
17954;DHT22;9102;53.548;9.926;2022-10-31T10:09:33;14.10;99.90
17954;DHT22;9102;53.548;9.926;2022-10-31T10:12:08;14.30;99.90
17954;DHT22;9102;53.548;9.926;2022-10-31T10:14:49;14.40;99.90
17954;DHT22;9102;53.548;9.926;2022-10-31T10:17:30;14.50;99.90
17954;DHT22;9102;53.548;9.926;2022-10-31T10:20:16;14.40;99.90
17954;DHT22;9102;53.548;9.926;2022-10-31T10:22:55;14.30;99.90
17954;DHT22;9102;53.548;9.926;2022-10-31T10:25:28;14.40;99.90
17954;DHT22;9102;53.548;9.926;2022-10-31T10:28:04;14.50;99.90
17954;DHT22;9102;53.548;9.926;2022-10-31T10:30:38;14.30;99.90
17954;DHT22;9102;53.548;9.926;2022-10-31T10:33:13;14.40;99.90
17954;DHT22;9102;53.548;9.926;2022-10-31T10:35:43;14.40;99.90
17954;DHT22;9102;53.548;9.926;2022-10-31T10:38:22;14.40;99.90
17954;DHT22;9102;53.548;9.926;2022-10-31T10:40:52;14.30;99.90
17954;DHT22;9102;53.548;9.926;2022-10-31T10:43:22;14.40;99.90
17954;DHT22;9102;53.548;9.926;2022-10-31T10:45:53;14.40;99.90
17954;DHT22;9102;53.548;9.926;2022-10-31T10:48:49;14.60;99.90
17954;DHT22;9102;53.548;9.926;2022-10-31T10:51:22;14.70;99.90
17954;DHT22;9102;53.548;9.926;2022-10-31T10:54:10;14.60;99.90
17954;DHT22;9102;53.548;9.926;2022-10-31T10:56:54;14.60;99.90
17954;DHT22;9102;53.548;9.926;2022-10-31T10:59:31;14.70;99.90
17954;DHT22;9102;53.548;9.926;2022-10-31T11:01:58;14.70;99.90
17954;DHT22;9102;53.548;9.926;2022-10-31T11:04:32;14.70;99.90
17954;DHT22;9102;53.548;9.926;2022-10-31T11:07:04;14.70;99.90
17954;DHT22;9102;53.548;9.926;2022-10-31T11:09:46;14.80;99.90
17954;DHT22;9102;53.548;9.926;2022-10-31T11:12:24;14.70;99.90
17954;DHT22;9102;53.548;9.926;2022-10-31T11:14:58;14.80;99.90
17954;DHT22;9102;53.548;9.926;2022-10-31T11:17:29;14.80;99.90
17954;DHT22;9102;53.548;9.926;2022-10-31T11:20:03;14.80;99.90
17954;DHT22;9102;53.548;9.926;2022-10-31T11:22:32;14.70;99.90
17954;DHT22;9102;53.548;9.926;2022-10-31T11:25:20;14.80;99.90
17954;DHT22;9102;53.548;9.926;2022-10-31T11:27:47;14.90;99.90
17954;DHT22;9102;53.548;9.926;2022-10-31T11:30:24;14.90;99.90
17954;DHT22;9102;53.548;9.926;2022-10-31T11:33:01;15.00;99.90
17954;DHT22;9102;53.548;9.926;2022-10-31T11:35:30;15.00;99.90
17954;DHT22;9102;53.548;9.926;2022-10-31T11:37:59;15.10;99.90
17954;DHT22;9102;53.548;9.926;2022-10-31T11:40:30;14.90;99.90
17954;DHT22;9102;53.548;9.926;2022-10-31T11:42:59;14.90;99.90
17954;DHT22;9102;53.548;9.926;2022-10-31T11:45:41;14.90;99.90
17954;DHT22;9102;53.548;9.926;2022-10-31T11:48:17;15.00;99.90
17954;DHT22;9102;53.548;9.926;2022-10-31T11:50:51;14.80;99.90
17954;DHT22;9102;53.548;9.926;2022-10-31T11:53:20;14.70;99.90
17954;DHT22;9102;53.548;9.926;2022-10-31T11:56:02;14.70;99.90
17954;DHT22;9102;53.548;9.926;2022-10-31T11:58:30;14.70;99.90
17954;DHT22;9102;53.548;9.926;2022-10-31T12:00:58;14.70;99.90
17954;DHT22;9102;53.548;9.926;2022-10-31T12:03:37;14.80;99.90
17954;DHT22;9102;53.548;9.926;2022-10-31T12:06:09;14.80;99.90
17954;DHT22;9102;53.548;9.926;2022-10-31T12:08:39;14.80;99.90
17954;DHT22;9102;53.548;9.926;2022-10-31T12:11:13;14.90;99.90
17954;DHT22;9102;53.548;9.926;2022-10-31T12:13:51;14.90;99.90
17954;DHT22;9102;53.548;9.926;2022-10-31T12:16:29;14.90;99.90
17954;DHT22;9102;53.548;9.926;2022-10-31T12:19:02;14.90;99.90
17954;DHT22;9102;53.548;9.926;2022-10-31T12:21:52;15.00;99.90
17954;DHT22;9102;53.548;9.926;2022-10-31T12:24:33;15.10;99.90
17954;DHT22;9102;53.548;9.926;2022-10-31T12:27:11;15.20;99.90
17954;DHT22;9102;53.548;9.926;2022-10-31T12:29:56;15.20;99.90
17954;DHT22;9102;53.548;9.926;2022-10-31T12:32:34;15.20;99.90
17954;DHT22;9102;53.548;9.926;2022-10-31T12:35:21;15.10;99.90
17954;DHT22;9102;53.548;9.926;2022-10-31T12:38:16;15.20;99.90
17954;DHT22;9102;53.548;9.926;2022-10-31T12:40:59;15.30;99.90
17954;DHT22;9102;53.548;9.926;2022-10-31T12:43:36;15.30;99.90
17954;DHT22;9102;53.548;9.926;2022-10-31T12:46:10;15.40;99.90
17954;DHT22;9102;53.548;9.926;2022-10-31T12:48:52;15.40;99.90
17954;DHT22;9102;53.548;9.926;2022-10-31T12:51:30;15.50;99.90
17954;DHT22;9102;53.548;9.926;2022-10-31T12:54:15;15.60;99.90
17954;DHT22;9102;53.548;9.926;2022-10-31T12:56:54;15.50;99.90
17954;DHT22;9102;53.548;9.926;2022-10-31T12:59:28;15.60;99.90
17954;DHT22;9102;53.548;9.926;2022-10-31T13:02:00;15.60;99.90
17954;DHT22;9102;53.548;9.926;2022-10-31T13:04:42;15.60;99.90
17954;DHT22;9102;53.548;9.926;2022-10-31T13:07:15;15.40;99.90
17954;DHT22;9102;53.548;9.926;2022-10-31T13:09:51;15.40;99.90
17954;DHT22;9102;53.548;9.926;2022-10-31T13:12:22;15.40;99.90
17954;DHT22;9102;53.548;9.926;2022-10-31T13:14:53;15.20;99.90
17954;DHT22;9102;53.548;9.926;2022-10-31T13:17:26;15.10;99.90
17954;DHT22;9102;53.548;9.926;2022-10-31T13:20:11;14.90;99.90
17954;DHT22;9102;53.548;9.926;2022-10-31T13:22:44;14.80;99.90
17954;DHT22;9102;53.548;9.926;2022-10-31T13:25:15;14.70;99.90
17954;DHT22;9102;53.548;9.926;2022-10-31T13:27:47;14.60;99.90
17954;DHT22;9102;53.548;9.926;2022-10-31T13:30:17;14.50;99.90
17954;DHT22;9102;53.548;9.926;2022-10-31T13:32:48;14.60;99.90
17954;DHT22;9102;53.548;9.926;2022-10-31T13:35:20;14.50;99.90
17954;DHT22;9102;53.548;9.926;2022-10-31T13:37:53;14.70;99.90
17954;DHT22;9102;53.548;9.926;2022-10-31T13:40:37;14.90;99.90
17954;DHT22;9102;53.548;9.926;2022-10-31T13:43:12;14.80;99.90
17954;DHT22;9102;53.548;9.926;2022-10-31T13:45:48;15.00;99.90
17954;DHT22;9102;53.548;9.926;2022-10-31T13:48:39;15.00;99.90
17954;DHT22;9102;53.548;9.926;2022-10-31T13:51:08;14.90;99.90
17954;DHT22;9102;53.548;9.926;2022-10-31T13:53:37;14.90;99.90
17954;DHT22;9102;53.548;9.926;2022-10-31T13:56:14;14.80;99.90
17954;DHT22;9102;53.548;9.926;2022-10-31T13:58:56;14.90;99.90
17954;DHT22;9102;53.548;9.926;2022-10-31T14:01:24;14.90;99.90
17954;DHT22;9102;53.548;9.926;2022-10-31T14:03:58;14.90;99.90
17954;DHT22;9102;53.548;9.926;2022-10-31T14:06:36;15.00;99.90
17954;DHT22;9102;53.548;9.926;2022-10-31T14:09:04;15.10;99.90
17954;DHT22;9102;53.548;9.926;2022-10-31T14:11:32;15.00;99.90
17954;DHT22;9102;53.548;9.926;2022-10-31T14:14:00;15.00;99.90
17954;DHT22;9102;53.548;9.926;2022-10-31T14:16:29;15.00;99.90
17954;DHT22;9102;53.548;9.926;2022-10-31T14:18:59;14.80;99.90
17954;DHT22;9102;53.548;9.926;2022-10-31T14:21:28;14.90;99.90
17954;DHT22;9102;53.548;9.926;2022-10-31T14:23:56;14.80;99.90
17954;DHT22;9102;53.548;9.926;2022-10-31T14:26:36;14.70;99.90
17954;DHT22;9102;53.548;9.926;2022-10-31T14:29:22;14.60;99.90
17954;DHT22;9102;53.548;9.926;2022-10-31T14:31:55;14.60;99.90
17954;DHT22;9102;53.548;9.926;2022-10-31T14:34:26;14.60;99.90
17954;DHT22;9102;53.548;9.926;2022-10-31T14:37:18;14.60;99.90
17954;DHT22;9102;53.548;9.926;2022-10-31T14:40:14;14.60;99.90
17954;DHT22;9102;53.548;9.926;2022-10-31T14:42:56;14.60;99.90
17954;DHT22;9102;53.548;9.926;2022-10-31T14:45:29;14.60;99.90
17954;DHT22;9102;53.548;9.926;2022-10-31T14:48:06;14.60;99.90
17954;DHT22;9102;53.548;9.926;2022-10-31T14:50:42;14.60;99.90
17954;DHT22;9102;53.548;9.926;2022-10-31T14:53:16;14.60;99.90
17954;DHT22;9102;53.548;9.926;2022-10-31T14:55:48;14.50;99.90
17954;DHT22;9102;53.548;9.926;2022-10-31T14:58:20;14.50;99.90
17954;DHT22;9102;53.548;9.926;2022-10-31T15:00:48;14.40;99.90
17954;DHT22;9102;53.548;9.926;2022-10-31T15:03:21;14.50;99.90
17954;DHT22;9102;53.548;9.926;2022-10-31T15:05:52;14.40;99.90
17954;DHT22;9102;53.548;9.926;2022-10-31T15:08:38;14.40;99.90
17954;DHT22;9102;53.548;9.926;2022-10-31T15:11:12;14.30;99.90
17954;DHT22;9102;53.548;9.926;2022-10-31T15:13:46;14.30;99.90
17954;DHT22;9102;53.548;9.926;2022-10-31T15:16:15;14.30;99.90
17954;DHT22;9102;53.548;9.926;2022-10-31T15:18:59;14.20;99.90
17954;DHT22;9102;53.548;9.926;2022-10-31T15:21:27;14.10;99.90
17954;DHT22;9102;53.548;9.926;2022-10-31T15:23:56;14.00;99.90
17954;DHT22;9102;53.548;9.926;2022-10-31T15:26:26;14.10;99.90
17954;DHT22;9102;53.548;9.926;2022-10-31T15:29:03;14.10;99.90
17954;DHT22;9102;53.548;9.926;2022-10-31T15:31:31;14.00;99.90
17954;DHT22;9102;53.548;9.926;2022-10-31T15:34:02;14.00;99.90
17954;DHT22;9102;53.548;9.926;2022-10-31T15:36:30;14.00;99.90
17954;DHT22;9102;53.548;9.926;2022-10-31T15:38:58;14.00;99.90
17954;DHT22;9102;53.548;9.926;2022-10-31T15:41:29;14.00;99.90
17954;DHT22;9102;53.548;9.926;2022-10-31T15:44:02;14.10;99.90
17954;DHT22;9102;53.548;9.926;2022-10-31T15:46:30;14.10;99.90
17954;DHT22;9102;53.548;9.926;2022-10-31T15:48:57;14.00;99.90
17954;DHT22;9102;53.548;9.926;2022-10-31T15:51:28;13.80;99.90
17954;DHT22;9102;53.548;9.926;2022-10-31T15:53:56;13.80;99.90
17954;DHT22;9102;53.548;9.926;2022-10-31T15:56:25;13.80;99.90
17954;DHT22;9102;53.548;9.926;2022-10-31T15:58:55;13.80;99.90
17954;DHT22;9102;53.548;9.926;2022-10-31T16:01:26;13.80;99.90
17954;DHT22;9102;53.548;9.926;2022-10-31T16:04:03;13.70;99.90
17954;DHT22;9102;53.548;9.926;2022-10-31T16:06:31;13.70;99.90
17954;DHT22;9102;53.548;9.926;2022-10-31T16:08:59;13.70;99.90
17954;DHT22;9102;53.548;9.926;2022-10-31T16:11:34;13.60;99.90
17954;DHT22;9102;53.548;9.926;2022-10-31T16:14:04;13.60;99.90
17954;DHT22;9102;53.548;9.926;2022-10-31T16:16:40;13.50;99.90